Time;durP1;ratioP1;P1;durP2;ratioP2;P2;SDS_P1;SDS_P2;PMS_P1;PMS_P2;Temp;Humidity;BMP_temperature;BMP_pressure;BME280_temperature;BME280_humidity;BME280_pressure;Samples;Min_cycle;Max_cycle;Signal;HPM_P1;HPM_P2
2022/03/02 00:00:39;;;;;;;19.90;7.68;;;;;;;1.68;70.21;102234.41;6094114;28;20372;-72
2022/03/02 00:03:34;;;;;;;24.63;8.27;;;;;;;1.82;72.12;102225.22;6095377;28;20043;-72
2022/03/02 00:06:30;;;;;;;19.10;7.90;;;;;;;1.67;70.98;102218.75;6094373;28;20021;-73
2022/03/02 00:09:25;;;;;;;19.27;7.38;;;;;;;1.78;70.48;102216.63;6094762;28;20513;-72
2022/03/02 00:12:21;;;;;;;19.73;7.27;;;;;;;1.82;71.87;102233.94;6098605;28;20024;-73
2022/03/02 00:15:16;;;;;;;18.00;7.80;;;;;;;1.76;72.83;102221.06;6099547;28;20275;-73
2022/03/02 00:18:11;;;;;;;21.20;8.33;;;;;;;1.59;72.48;102226.00;6099869;28;20087;-73
2022/03/02 00:21:06;;;;;;;19.53;7.50;;;;;;;1.51;72.27;102228.03;6098363;28;20056;-72
2022/03/02 00:24:03;;;;;;;25.13;9.37;;;;;;;1.48;72.74;102223.75;6099526;28;20279;-72
2022/03/02 00:26:59;;;;;;;16.42;8.82;;;;;;;1.46;71.95;102225.56;6098692;28;20098;-72
2022/03/02 00:29:54;;;;;;;22.02;8.85;;;;;;;1.30;72.23;102223.50;6099163;28;20029;-72
2022/03/02 00:32:50;;;;;;;23.53;8.30;;;;;;;1.31;73.56;102225.19;6098075;28;20036;-72
2022/03/02 00:35:45;;;;;;;26.63;8.27;;;;;;;1.30;73.21;102213.06;6099344;28;20044;-72
2022/03/02 00:38:40;;;;;;;20.00;7.67;;;;;;;1.34;72.97;102214.66;6099058;28;20059;-72
2022/03/02 00:41:36;;;;;;;18.80;7.83;;;;;;;1.40;72.94;102214.47;6097806;28;20090;-72
2022/03/02 00:44:32;;;;;;;18.77;8.07;;;;;;;1.34;72.28;102222.50;6098790;28;20356;-72
2022/03/02 00:47:27;;;;;;;22.35;8.38;;;;;;;1.31;72.83;102219.97;6098416;28;20361;-72
2022/03/02 00:50:23;;;;;;;22.60;8.80;;;;;;;1.17;72.99;102209.97;6098153;28;20025;-73
2022/03/02 00:53:18;;;;;;;20.52;7.82;;;;;;;1.17;73.42;102202.13;6098427;28;20047;-72
2022/03/02 00:56:14;;;;;;;21.73;8.15;;;;;;;1.28;73.90;102207.88;6098476;28;20163;-72
2022/03/02 00:59:09;;;;;;;24.43;8.27;;;;;;;1.26;74.12;102201.84;6098784;28;20036;-71
2022/03/02 01:02:04;;;;;;;22.07;9.00;;;;;;;1.05;74.44;102206.03;6098054;28;20024;-71
2022/03/02 01:05:00;;;;;;;21.93;7.43;;;;;;;1.18;74.67;102204.72;6098495;28;20017;-73
2022/03/02 01:07:55;;;;;;;19.63;7.68;;;;;;;1.18;74.93;102202.09;6098196;28;20495;-72
2022/03/02 01:10:50;;;;;;;19.97;7.20;;;;;;;1.09;74.06;102201.53;6097414;28;20051;-72
2022/03/02 01:13:47;;;;;;;20.97;7.50;;;;;;;1.05;74.20;102203.41;6097983;28;20029;-72
2022/03/02 01:16:42;;;;;;;19.95;7.03;;;;;;;0.99;74.43;102192.28;6098197;28;20052;-72
2022/03/02 01:19:39;;;;;;;21.20;8.60;;;;;;;0.99;75.10;102197.50;6097150;28;20035;-72
2022/03/02 01:22:34;;;;;;;18.92;7.38;;;;;;;0.95;74.75;102201.97;6096949;28;20107;-72
2022/03/02 01:25:29;;;;;;;20.80;8.43;;;;;;;0.96;74.92;102203.69;6096553;28;20037;-71
2022/03/02 01:28:25;;;;;;;22.05;7.70;;;;;;;0.97;75.40;102188.88;6097957;28;20029;-72
2022/03/02 01:31:21;;;;;;;19.70;7.40;;;;;;;0.97;75.26;102199.31;6097780;28;20036;-71
2022/03/02 01:34:17;;;;;;;21.50;8.77;;;;;;;0.96;74.69;102192.38;6097522;28;20027;-72
2022/03/02 01:37:12;;;;;;;24.90;8.57;;;;;;;0.94;74.85;102189.84;6097279;28;20028;-72
2022/03/02 01:40:09;;;;;;;19.93;8.37;;;;;;;1.00;75.28;102191.41;6097094;28;20035;-73
2022/03/02 01:43:05;;;;;;;23.40;9.55;;;;;;;0.98;74.74;102188.00;6097433;28;20295;-72
2022/03/02 01:46:00;;;;;;;19.48;7.88;;;;;;;1.00;74.93;102183.56;6097245;28;20083;-71
2022/03/02 01:48:56;;;;;;;22.13;7.93;;;;;;;0.93;75.37;102172.44;6098852;28;20703;-72
2022/03/02 01:51:51;;;;;;;20.20;8.40;;;;;;;0.91;75.31;102170.78;6097942;28;20171;-72
2022/03/02 01:54:46;;;;;;;21.63;9.27;;;;;;;0.90;75.67;102167.31;6098039;28;20029;-72
2022/03/02 01:57:42;;;;;;;23.67;9.50;;;;;;;0.83;75.19;102160.59;6098198;28;20043;-72
2022/03/02 02:00:37;;;;;;;27.23;10.13;;;;;;;0.82;75.49;102145.81;6098187;28;20061;-72
2022/03/02 02:03:33;;;;;;;19.17;8.63;;;;;;;0.79;75.96;102158.16;6098736;28;20029;-72
2022/03/02 02:06:29;;;;;;;23.33;8.95;;;;;;;0.78;75.59;102146.84;6098352;28;20025;-71
2022/03/02 02:09:24;;;;;;;25.42;9.45;;;;;;;0.80;76.32;102145.03;6098514;28;20028;-72
2022/03/02 02:12:19;;;;;;;19.50;9.43;;;;;;;0.80;75.75;102155.47;6097236;28;20146;-72
2022/03/02 02:15:14;;;;;;;19.10;8.43;;;;;;;0.77;74.98;102147.72;6097527;28;20039;-72
2022/03/02 02:18:10;;;;;;;26.75;9.07;;;;;;;0.77;75.20;102146.88;6098342;28;20024;-71
2022/03/02 02:21:08;;;;;;;24.07;9.37;;;;;;;0.78;75.06;102141.63;6097893;28;20388;-72
2022/03/02 02:24:03;;;;;;;17.35;7.78;;;;;;;0.83;75.19;102129.28;6097681;28;21646;-71
2022/03/02 02:26:58;;;;;;;20.07;8.37;;;;;;;0.75;74.55;102127.81;6097297;28;20043;-70
2022/03/02 02:29:54;;;;;;;24.42;9.50;;;;;;;0.75;74.42;102128.66;6098550;28;20025;-72
2022/03/02 02:32:49;;;;;;;23.10;9.02;;;;;;;0.69;74.27;102128.84;6095467;28;20108;-73
2022/03/02 02:35:45;;;;;;;20.13;8.00;;;;;;;0.70;74.29;102122.75;6097885;28;20111;-73
2022/03/02 02:38:41;;;;;;;23.53;8.90;;;;;;;0.72;74.54;102118.31;6097842;28;20040;-71
2022/03/02 02:41:36;;;;;;;22.05;9.18;;;;;;;0.72;74.64;102115.72;6096327;28;20351;-71
2022/03/02 02:44:34;;;;;;;24.53;8.37;;;;;;;0.74;74.99;102113.03;6098085;28;20028;-71
2022/03/02 02:47:29;;;;;;;23.65;8.70;;;;;;;0.73;74.75;102104.38;6096539;28;20051;-72
2022/03/02 02:50:30;;;;;;;19.77;8.60;;;;;;;0.75;74.99;102105.19;6090455;28;20040;-72
2022/03/02 02:53:25;;;;;;;21.08;8.68;;;;;;;0.82;74.86;102101.44;6097452;28;20039;-71
2022/03/02 02:56:21;;;;;;;23.92;8.25;;;;;;;0.75;75.29;102099.09;6097088;28;20021;-72
2022/03/02 02:59:17;;;;;;;19.05;8.35;;;;;;;0.75;75.36;102110.41;6097520;28;20052;-72
2022/03/02 03:02:12;;;;;;;23.60;8.15;;;;;;;0.73;75.25;102099.16;6096636;28;20093;-71
2022/03/02 03:05:11;;;;;;;21.70;8.03;;;;;;;0.91;75.03;102098.53;6097337;28;20461;-71
2022/03/02 03:08:10;;;;;;;20.15;7.63;;;;;;;0.93;74.76;102101.94;6096753;28;20121;-73
2022/03/02 03:11:06;;;;;;;19.27;6.95;;;;;;;0.87;74.66;102104.75;6094799;28;20103;-71
2022/03/02 03:14:07;;;;;;;21.53;8.53;;;;;;;0.80;74.51;102103.25;6093706;28;20029;-72
2022/03/02 03:17:02;;;;;;;19.83;7.50;;;;;;;0.76;75.00;102108.63;6079074;28;20380;-72
2022/03/02 03:19:58;;;;;;;18.63;8.48;;;;;;;0.75;74.94;102099.09;6088766;28;20029;-72
2022/03/02 03:22:55;;;;;;;20.40;7.57;;;;;;;0.81;75.46;102098.91;6096593;28;20095;-72
2022/03/02 03:25:50;;;;;;;21.10;8.25;;;;;;;0.82;75.65;102091.00;6094561;28;20025;-72
2022/03/02 03:28:45;;;;;;;20.80;8.30;;;;;;;0.79;75.75;102095.50;6087994;28;20044;-71
2022/03/02 03:31:41;;;;;;;20.17;7.87;;;;;;;0.75;75.47;102092.13;6095343;28;20025;-72
2022/03/02 03:34:36;;;;;;;21.83;7.80;;;;;;;0.78;75.49;102083.34;6099982;28;20104;-72
2022/03/02 03:37:31;;;;;;;20.23;8.03;;;;;;;0.60;75.77;102084.75;6095956;28;20094;-72
2022/03/02 03:40:27;;;;;;;20.20;8.23;;;;;;;0.61;75.97;102083.88;6091590;28;20524;-72
2022/03/02 03:43:22;;;;;;;20.67;8.02;;;;;;;0.52;76.74;102076.31;6096811;28;20032;-72
2022/03/02 03:46:17;;;;;;;21.03;8.87;;;;;;;0.54;76.71;102079.78;6103350;28;20052;-72
2022/03/02 03:49:12;;;;;;;22.43;8.80;;;;;;;0.54;77.05;102085.81;6105627;28;20108;-72
2022/03/02 03:52:09;;;;;;;18.77;7.07;;;;;;;0.58;77.28;102079.59;6100840;28;20432;-72
2022/03/02 03:55:06;;;;;;;19.15;6.35;;;;;;;0.55;77.50;102079.72;6102220;28;20123;-72
2022/03/02 03:58:01;;;;;;;19.17;7.47;;;;;;;0.44;78.05;102080.94;6101253;28;20044;-72
2022/03/02 04:00:57;;;;;;;20.43;6.70;;;;;;;0.42;78.12;102082.75;6100950;28;20127;-72
2022/03/02 04:03:52;;;;;;;19.50;7.15;;;;;;;0.31;77.85;102077.00;6101031;28;20061;-72
2022/03/02 04:06:47;;;;;;;20.87;10.03;;;;;;;0.24;78.32;102075.50;6100358;28;20036;-71
2022/03/02 04:09:42;;;;;;;18.17;7.80;;;;;;;0.20;78.84;102079.94;6101659;28;20383;-72
2022/03/02 04:12:38;;;;;;;20.57;7.77;;;;;;;0.10;78.32;102075.06;6091796;28;20037;-71
2022/03/02 04:15:33;;;;;;;18.80;6.97;;;;;;;0.03;78.77;102076.16;6096977;28;20041;-73
2022/03/02 04:18:28;;;;;;;17.37;7.60;;;;;;;0.09;80.04;102075.94;6101492;28;20036;-72
2022/03/02 04:21:24;;;;;;;16.17;7.33;;;;;;;-0.19;79.36;102086.38;6100378;28;20464;-72
2022/03/02 04:24:19;;;;;;;16.53;6.97;;;;;;;-0.51;79.78;102084.63;6101038;28;20017;-72
2022/03/02 04:27:14;;;;;;;19.27;7.93;;;;;;;-0.67;80.50;102089.41;6099617;28;20457;-71
2022/03/02 04:30:11;;;;;;;17.10;7.17;;;;;;;-0.84;81.10;102089.00;6100423;28;20121;-73
2022/03/02 04:33:06;;;;;;;22.20;8.82;;;;;;;-0.88;82.34;102082.19;6101130;28;20767;-72
2022/03/02 04:36:02;;;;;;;19.73;7.47;;;;;;;-0.78;83.24;102085.38;6100583;28;20039;-72
2022/03/02 04:38:58;;;;;;;21.58;7.03;;;;;;;-0.82;83.08;102076.81;6100377;28;20299;-71
2022/03/02 04:41:53;;;;;;;18.45;7.55;;;;;;;-1.20;83.33;102075.16;6099871;28;20031;-72
2022/03/02 04:44:48;;;;;;;21.67;7.90;;;;;;;-1.37;83.29;102085.16;6100826;28;20159;-71
2022/03/02 04:47:43;;;;;;;22.77;8.20;;;;;;;-1.05;83.70;102062.66;6100873;28;20029;-71
2022/03/02 04:50:39;;;;;;;17.17;6.73;;;;;;;-1.08;83.58;102065.34;6099315;28;20385;-71
2022/03/02 04:53:34;;;;;;;21.20;8.00;;;;;;;-1.22;83.72;102066.56;6097483;28;20029;-71
2022/03/02 04:56:29;;;;;;;21.97;7.93;;;;;;;-1.25;83.83;102060.59;6100034;28;20031;-71
2022/03/02 04:59:25;;;;;;;23.33;9.20;;;;;;;-1.26;83.95;102056.28;6100756;28;20021;-70
2022/03/02 05:02:20;;;;;;;27.30;8.88;;;;;;;-1.23;84.27;102056.19;6099945;28;20423;-72
2022/03/02 05:05:19;;;;;;;24.00;8.60;;;;;;;-1.12;84.42;102063.72;6099403;28;20457;-71
2022/03/02 05:08:14;;;;;;;21.23;8.13;;;;;;;-0.97;84.20;102055.53;6100257;28;20469;-71
2022/03/02 05:11:09;;;;;;;22.00;8.00;;;;;;;-0.81;83.57;102054.22;6099432;28;20036;-72
2022/03/02 05:14:05;;;;;;;19.60;7.97;;;;;;;-0.86;83.88;102045.69;6100311;28;20032;-72
2022/03/02 05:17:02;;;;;;;20.13;7.85;;;;;;;-0.80;83.55;102046.38;6100203;28;20368;-71
2022/03/02 05:19:57;;;;;;;23.30;8.27;;;;;;;-0.77;83.63;102050.66;6098433;28;20033;-71
2022/03/02 05:22:52;;;;;;;23.07;8.17;;;;;;;-0.81;83.55;102059.41;6099144;28;20029;-72
2022/03/02 05:25:47;;;;;;;19.93;6.93;;;;;;;-0.76;83.60;102063.63;6099168;28;20040;-72
2022/03/02 05:28:43;;;;;;;17.53;6.23;;;;;;;-0.44;85.00;102062.75;6099751;28;20033;-70
2022/03/02 05:31:38;;;;;;;22.93;7.10;;;;;;;-0.58;84.30;102051.00;6099342;28;20033;-71
2022/03/02 05:34:33;;;;;;;20.63;6.97;;;;;;;-0.59;84.07;102057.94;6094905;28;20041;-71
2022/03/02 05:37:29;;;;;;;18.30;7.77;;;;;;;-0.60;84.29;102058.88;6098794;28;20029;-71
2022/03/02 05:40:24;;;;;;;18.67;7.87;;;;;;;-0.60;84.47;102069.28;6098804;28;20024;-71
2022/03/02 05:43:19;;;;;;;20.37;6.90;;;;;;;-0.84;84.61;102069.91;6099716;28;20388;-72
2022/03/02 05:46:14;;;;;;;16.40;7.17;;;;;;;-1.06;84.10;102067.00;6094528;28;20040;-72
2022/03/02 05:49:10;;;;;;;19.33;7.60;;;;;;;-1.21;84.85;102065.66;6099440;28;20033;-71
2022/03/02 05:52:05;;;;;;;20.05;8.10;;;;;;;-1.31;84.88;102061.59;6094611;28;20116;-71
2022/03/02 05:55:01;;;;;;;19.43;8.10;;;;;;;-1.32;84.99;102078.09;6099180;28;20060;-71
2022/03/02 05:57:56;;;;;;;22.30;8.30;;;;;;;-1.12;85.51;102063.72;6100607;28;20029;-71
2022/03/02 06:00:52;;;;;;;19.03;8.13;;;;;;;-1.08;85.35;102066.22;6102049;28;20041;-70
2022/03/02 06:03:49;;;;;;;16.40;7.03;;;;;;;-1.02;85.13;102073.00;6098945;28;20029;-72
2022/03/02 06:06:44;;;;;;;18.52;7.30;;;;;;;-0.77;85.61;102056.72;6098837;28;20029;-71
2022/03/02 06:09:40;;;;;;;19.57;7.73;;;;;;;-0.61;85.61;102060.59;6098408;28;20057;-71
2022/03/02 06:12:35;;;;;;;21.48;7.40;;;;;;;-0.83;85.08;102056.00;6098473;28;20040;-71
2022/03/02 06:15:31;;;;;;;22.85;7.88;;;;;;;-0.98;84.74;102061.63;6098185;28;20114;-72
2022/03/02 06:18:27;;;;;;;21.30;7.57;;;;;;;-0.85;85.02;102058.69;6098562;28;20040;-70
2022/03/02 06:21:27;;;;;;;22.33;8.35;;;;;;;-0.98;84.74;102067.66;6097209;28;20032;-72
2022/03/02 06:24:22;;;;;;;23.95;7.07;;;;;;;-1.01;84.98;102062.56;6098518;28;20029;-71
2022/03/02 06:27:20;;;;;;;18.40;7.63;;;;;;;-0.85;85.41;102063.03;6097969;28;20028;-70
2022/03/02 06:30:15;;;;;;;20.30;7.38;;;;;;;-0.86;85.83;102063.91;6091915;28;20032;-71
2022/03/02 06:33:13;;;;;;;18.93;8.40;;;;;;;-0.94;86.30;102060.66;6091502;28;20537;-71
2022/03/02 06:36:08;;;;;;;19.58;6.90;;;;;;;-0.82;85.80;102060.34;6096886;28;20031;-70
2022/03/02 06:39:05;;;;;;;18.40;7.93;;;;;;;-0.95;85.63;102062.38;6098290;28;20372;-71
2022/03/02 06:42:11;;;;;;;17.10;7.65;;;;;;;-1.01;86.58;102065.19;6099437;28;20267;-70
2022/03/02 06:45:19;;;;;;;19.05;6.72;;;;;;;-0.40;86.80;102066.97;6088662;28;20044;-71
2022/03/02 06:48:21;;;;;;;18.73;6.53;;;;;;;-0.21;86.08;102073.34;6096826;28;20085;-71
2022/03/02 06:51:20;;;;;;;19.67;8.35;;;;;;;-0.15;85.67;102065.38;6097266;28;20567;-71
2022/03/02 06:54:18;;;;;;;24.00;7.90;;;;;;;-0.32;84.83;102083.22;6097934;28;20017;-72
2022/03/02 06:57:16;;;;;;;19.90;8.52;;;;;;;-0.24;84.88;102075.19;6098077;28;20377;-72
2022/03/02 07:00:16;;;;;;;19.33;8.13;;;;;;;-0.33;85.64;102075.47;6096842;28;20037;-72
2022/03/02 07:03:11;;;;;;;16.95;7.25;;;;;;;0.13;85.87;102073.22;6092936;28;20029;-72
2022/03/02 07:06:06;;;;;;;19.53;8.60;;;;;;;0.02;85.15;102064.88;6097665;28;20036;-71
2022/03/02 07:09:02;;;;;;;23.23;9.53;;;;;;;0.27;83.87;102070.19;6097950;28;20480;-72
2022/03/02 07:12:07;;;;;;;21.75;8.48;;;;;;;0.31;82.63;102077.00;6097102;28;20159;-71
2022/03/02 07:15:06;;;;;;;21.73;9.77;;;;;;;0.10;81.43;102069.84;6098893;28;20033;-71
2022/03/02 07:18:03;;;;;;;21.00;9.40;;;;;;;0.11;81.55;102076.78;6097754;28;20021;-72
2022/03/02 07:20:59;;;;;;;19.17;7.40;;;;;;;0.17;80.35;102073.97;6096752;28;20108;-72
2022/03/02 07:23:59;;;;;;;21.58;8.75;;;;;;;0.17;80.95;102079.19;6088130;28;20098;-71
2022/03/02 07:26:57;;;;;;;20.48;9.40;;;;;;;0.28;80.15;102075.34;6097132;28;20025;-70
2022/03/02 07:29:54;;;;;;;20.95;9.43;;;;;;;0.41;79.42;102078.41;6091017;28;20021;-72
2022/03/02 07:32:54;;;;;;;22.10;8.23;;;;;;;0.41;80.22;102068.00;6096228;28;20052;-71
2022/03/02 07:35:58;;;;;;;22.58;8.45;;;;;;;0.59;79.83;102072.66;6097214;28;20027;-72
2022/03/02 07:38:53;;;;;;;21.00;8.27;;;;;;;0.65;79.15;102072.44;6085533;28;20036;-71
2022/03/02 07:41:49;;;;;;;23.50;8.93;;;;;;;0.85;78.75;102069.16;6096122;28;20380;-71
2022/03/02 07:44:46;;;;;;;22.88;8.68;;;;;;;0.96;78.66;102065.28;6097449;28;20109;-70
2022/03/02 07:47:41;;;;;;;25.23;9.95;;;;;;;0.85;78.75;102069.16;6097027;28;20534;-72
2022/03/02 07:50:39;;;;;;;18.07;8.30;;;;;;;0.96;77.73;102061.81;6096798;28;20021;-71
2022/03/02 07:53:43;;;;;;;22.80;8.70;;;;;;;1.01;76.85;102063.38;6097112;28;20256;-72
2022/03/02 07:56:38;;;;;;;22.77;9.23;;;;;;;1.24;77.32;102072.19;6096713;28;20029;-70
2022/03/02 07:59:39;;;;;;;19.42;8.73;;;;;;;1.31;75.85;102068.44;6097048;28;20036;-71
2022/03/02 08:02:35;;;;;;;19.90;8.63;;;;;;;1.38;74.56;102060.34;6093602;28;20041;-70
2022/03/02 08:05:32;;;;;;;19.90;7.78;;;;;;;1.26;73.93;102057.31;6093899;28;20041;-71
2022/03/02 08:08:28;;;;;;;22.20;7.15;;;;;;;1.49;73.81;102067.81;6094564;28;20025;-72
2022/03/02 08:11:23;;;;;;;20.38;8.45;;;;;;;1.44;72.94;102064.50;6095583;28;20111;-72
2022/03/02 08:14:21;;;;;;;20.02;8.82;;;;;;;1.53;72.65;102065.03;6094673;28;20039;-70
2022/03/02 08:17:17;;;;;;;16.85;7.70;;;;;;;1.63;72.45;102060.31;6096322;28;20053;-72
2022/03/02 08:20:14;;;;;;;23.13;9.00;;;;;;;1.39;72.32;102053.34;6104439;28;20029;-72
2022/03/02 08:23:10;;;;;;;23.70;8.93;;;;;;;1.43;72.43;102060.19;6099709;28;20368;-72
2022/03/02 08:26:05;;;;;;;23.75;9.13;;;;;;;1.47;73.38;102053.94;6103520;28;20063;-72
2022/03/02 08:29:05;;;;;;;18.35;8.50;;;;;;;1.69;73.43;102055.72;6087856;28;20036;-70
2022/03/02 08:32:03;;;;;;;23.58;8.90;;;;;;;1.98;72.23;102057.25;6097282;28;20028;-72
2022/03/02 08:34:58;;;;;;;22.05;8.07;;;;;;;2.07;71.11;102051.66;6094622;28;20384;-72
2022/03/02 08:37:53;;;;;;;23.63;10.13;;;;;;;2.14;70.77;102042.66;6089122;28;20052;-71
2022/03/02 08:40:49;;;;;;;23.70;9.60;;;;;;;2.51;69.93;102028.09;6089999;28;20334;-71
2022/03/02 08:43:46;;;;;;;21.00;9.00;;;;;;;2.95;69.11;102027.97;6082122;28;20484;-72
2022/03/02 08:46:44;;;;;;;21.67;8.52;;;;;;;3.00;67.08;102025.13;6092340;28;20025;-72
2022/03/02 08:49:39;;;;;;;24.77;8.77;;;;;;;3.15;66.88;102023.63;6093224;28;20043;-73
2022/03/02 08:52:35;;;;;;;21.63;7.70;;;;;;;3.37;66.06;102027.84;6085934;28;20045;-71
2022/03/02 08:55:31;;;;;;;18.70;9.00;;;;;;;3.11;64.15;102017.66;6084161;28;20024;-72
2022/03/02 08:58:28;;;;;;;23.55;8.68;;;;;;;3.34;65.48;102025.38;6093177;28;20048;-71
2022/03/02 09:01:23;;;;;;;18.65;8.15;;;;;;;3.60;63.19;102014.59;6096603;28;20033;-72
2022/03/02 09:04:18;;;;;;;19.20;7.65;;;;;;;3.67;61.33;102014.31;6085675;28;20047;-72
2022/03/02 09:07:16;;;;;;;17.60;7.13;;;;;;;3.97;60.59;102016.34;6091862;28;20025;-72
2022/03/02 09:10:11;;;;;;;20.02;8.07;;;;;;;4.01;59.68;102019.69;6089361;28;20461;-73
2022/03/02 09:13:07;;;;;;;17.10;6.80;;;;;;;4.17;58.42;102010.16;6095204;28;20029;-72
2022/03/02 09:16:06;;;;;;;21.13;8.52;;;;;;;4.35;58.13;102027.66;6087481;28;20047;-72
2022/03/02 09:19:02;;;;;;;19.70;8.55;;;;;;;4.71;56.56;102025.84;6077629;28;20538;-72
2022/03/02 09:21:58;;;;;;;19.60;8.20;;;;;;;4.41;56.19;102019.47;6084327;28;20028;-71
2022/03/02 09:24:53;;;;;;;20.95;8.23;;;;;;;4.56;57.45;102026.63;6092233;28;20029;-72
2022/03/02 09:27:50;;;;;;;16.88;8.10;;;;;;;4.79;57.18;102022.84;6086827;28;20358;-72
2022/03/02 09:30:46;;;;;;;18.00;7.72;;;;;;;5.03;57.25;102012.88;6097737;28;20396;-72
2022/03/02 09:33:45;;;;;;;19.45;7.68;;;;;;;4.93;56.07;102019.50;6089514;28;20032;-73
2022/03/02 09:36:41;;;;;;;19.55;7.60;;;;;;;5.39;55.39;102024.09;6079794;28;20021;-73
2022/03/02 09:39:37;;;;;;;23.10;9.63;;;;;;;5.46;55.11;102030.75;6083052;28;20033;-72
2022/03/02 09:42:40;;;;;;;19.90;8.55;;;;;;;5.31;57.45;102026.28;6082978;28;20459;-72
2022/03/02 09:45:37;;;;;;;14.75;7.35;;;;;;;5.88;54.73;102023.19;6087420;28;20029;-73
2022/03/02 09:48:41;;;;;;;25.55;9.88;;;;;;;5.93;56.46;102023.78;6089755;28;20047;-71
2022/03/02 09:51:44;;;;;;;17.33;8.15;;;;;;;6.43;53.46;102020.13;6108863;28;20043;-72
2022/03/02 09:54:40;;;;;;;21.88;8.38;;;;;;;6.33;54.43;102024.22;6084976;28;20112;-71
2022/03/02 09:57:42;;;;;;;19.20;7.50;;;;;;;6.21;54.01;102019.63;6090199;28;20133;-72
2022/03/02 10:00:37;;;;;;;15.93;7.32;;;;;;;5.93;53.01;102015.91;6094798;28;20031;-71
2022/03/02 10:03:36;;;;;;;18.03;7.77;;;;;;;6.04;53.92;102011.81;6092929;28;20507;-73
2022/03/02 10:06:32;;;;;;;17.33;7.45;;;;;;;6.06;54.85;102009.97;6091655;28;20033;-71
2022/03/02 10:09:27;;;;;;;18.05;8.73;;;;;;;6.19;54.45;102010.97;6090734;28;20078;-73
2022/03/02 10:12:23;;;;;;;18.27;7.68;;;;;;;6.41;52.89;102003.56;6088048;28;20487;-73
2022/03/02 10:15:19;;;;;;;15.30;6.97;;;;;;;6.72;50.08;102003.47;6084966;28;20040;-73
2022/03/02 10:18:15;;;;;;;15.80;6.82;;;;;;;6.81;48.68;102010.84;6089854;28;20028;-72
2022/03/02 10:21:10;;;;;;;14.15;6.80;;;;;;;7.12;48.39;102002.81;6094244;28;20048;-73
2022/03/02 10:24:06;;;;;;;15.70;7.47;;;;;;;7.54;49.81;101999.34;6087683;28;20380;-73
2022/03/02 10:27:05;;;;;;;16.60;7.57;;;;;;;7.86;51.56;102002.59;6087193;28;20104;-72
2022/03/02 10:30:05;;;;;;;18.77;7.85;;;;;;;8.18;48.83;102006.69;6083937;28;20036;-74
2022/03/02 10:33:18;;;;;;;16.15;7.50;;;;;;;7.73;51.60;102001.69;6089924;28;20092;-73
2022/03/02 10:36:14;;;;;;;;;;;;;;;7.75;50.75;102002.44;6086768;28;20025;-73
2022/03/02 10:39:22;;;;;;;20.65;7.85;;;;;;;7.82;50.92;102001.13;6092043;28;19915;-73
2022/03/02 10:42:28;;;;;;;15.48;7.05;;;;;;;8.15;51.54;101996.31;6088020;28;20035;-73
2022/03/02 10:45:29;;;;;;;13.68;6.38;;;;;;;8.10;51.42;101998.41;6096191;28;20072;-73
2022/03/02 10:48:42;;;;;;;19.45;7.93;;;;;;;7.80;52.73;102002.97;6095721;28;20024;-72
2022/03/02 10:51:38;;;;;;;14.63;6.43;;;;;;;8.21;49.44;101993.28;6095391;28;20036;-72
2022/03/02 10:54:35;;;;;;;16.92;8.18;;;;;;;7.53;50.96;101988.88;6095414;28;20064;-73
2022/03/02 10:57:32;;;;;;;17.42;7.47;;;;;;;7.90;49.76;101976.84;6096302;28;20029;-73
2022/03/02 11:00:27;;;;;;;17.10;6.80;;;;;;;8.53;49.07;101982.44;6096095;28;20510;-73
2022/03/02 11:03:26;;;;;;;19.30;7.43;;;;;;;8.09;50.42;101985.31;6091287;28;20108;-72
2022/03/02 11:06:22;;;;;;;17.13;7.25;;;;;;;8.21;48.38;101985.34;6096274;28;20139;-72
2022/03/02 11:09:17;;;;;;;19.42;7.32;;;;;;;8.27;46.16;101977.06;6096746;28;20017;-73
2022/03/02 11:12:14;;;;;;;15.93;6.80;;;;;;;8.54;45.60;101986.75;6094612;28;20025;-73
2022/03/02 11:15:11;;;;;;;17.17;6.93;;;;;;;8.25;46.51;101976.28;6089093;28;20033;-72
2022/03/02 11:18:06;;;;;;;14.48;5.85;;;;;;;8.18;45.80;101971.50;6087489;28;20051;-74
2022/03/02 11:21:01;;;;;;;16.10;7.73;;;;;;;8.49;47.42;101980.94;6108803;28;20025;-73
2022/03/02 11:24:00;;;;;;;14.63;6.30;;;;;;;8.45;45.17;101974.16;6097201;28;20029;-73
2022/03/02 11:26:55;;;;;;;13.65;6.43;;;;;;;8.50;46.27;101974.69;6097326;28;20056;-73
2022/03/02 11:30:03;;;;;;;12.37;6.50;;;;;;;8.44;46.85;101975.09;6097053;28;20465;-74
2022/03/02 11:33:06;;;;;;;13.90;6.22;;;;;;;8.28;44.34;101967.34;6096171;28;20033;-73
2022/03/02 11:36:13;;;;;;;14.95;6.65;;;;;;;8.24;42.76;101958.72;6097604;28;20453;-72
2022/03/02 11:39:09;;;;;;;22.80;7.75;;;;;;;8.43;44.92;101961.03;6096971;28;20128;-72
2022/03/02 11:42:05;;;;;;;14.00;6.40;;;;;;;8.15;44.39;101959.31;6096513;28;20368;-73
2022/03/02 11:45:02;;;;;;;12.98;6.63;;;;;;;8.40;44.32;101960.41;6096545;28;20057;-73
2022/03/02 11:47:57;;;;;;;14.88;6.47;;;;;;;8.10;42.42;101950.03;6097208;28;20376;-72
2022/03/02 11:51:07;;;;;;;16.57;6.07;;;;;;;8.22;43.27;101942.13;6096308;28;20029;-72
2022/03/02 11:54:02;;;;;;;16.88;5.82;;;;;;;8.26;40.99;101942.78;6098405;28;20039;-72
2022/03/02 11:57:02;;;;;;;15.33;5.67;;;;;;;8.28;39.66;101935.63;6101415;28;20029;-74
2022/03/02 12:00:21;;;;;;;13.18;6.32;;;;;;;8.55;40.10;101925.88;6095793;28;20033;-72
2022/03/02 12:03:16;;;;;;;18.73;8.60;;;;;;;8.17;40.94;101923.09;6095022;28;20037;-72
2022/03/02 12:06:16;;;;;;;13.65;6.57;;;;;;;8.07;42.09;101921.97;6096942;28;20094;-73
2022/03/02 12:09:27;;;;;;;22.02;9.90;;;;;;;7.97;42.97;101910.34;6100330;28;20037;-73
2022/03/02 12:12:23;;;;;;;23.08;10.98;;;;;;;8.21;42.91;101908.72;6099348;28;20029;-73
2022/03/02 12:15:19;;;;;;;14.90;6.70;;;;;;;8.13;43.82;101907.53;6100627;28;20406;-72
2022/03/02 12:18:16;;;;;;;18.73;8.23;;;;;;;8.09;44.72;101904.25;6101003;28;20263;-72
2022/03/02 12:21:14;;;;;;;14.38;7.00;;;;;;;8.12;43.38;101890.84;6100381;28;20044;-73
2022/03/02 12:24:09;;;;;;;15.02;6.45;;;;;;;8.23;44.86;101893.63;6100918;28;20021;-72
2022/03/02 12:27:10;;;;;;;16.95;7.00;;;;;;;8.03;45.21;101894.09;6099986;28;20029;-73
2022/03/02 12:30:07;;;;;;;;;;;;;;;7.90;46.16;101895.84;6100906;28;20044;-73
2022/03/02 12:33:05;;;;;;;15.57;7.03;;;;;;;7.87;42.32;101888.13;6095370;28;19999;-73
2022/03/02 12:36:00;;;;;;;16.75;7.50;;;;;;;7.67;42.42;101881.47;6100070;28;20033;-72
2022/03/02 12:38:56;;;;;;;14.17;6.73;;;;;;;7.90;41.98;101880.00;6105227;28;20036;-71
2022/03/02 12:41:51;;;;;;;13.20;5.33;;;;;;;7.79;43.11;101875.41;6100134;28;20032;-73
2022/03/02 12:44:50;;;;;;;16.20;7.00;;;;;;;8.19;41.61;101873.63;6095903;28;20067;-73
2022/03/02 12:47:47;;;;;;;13.82;6.03;;;;;;;8.33;39.70;101873.59;6100478;28;20357;-73
2022/03/02 12:50:43;;;;;;;17.70;6.97;;;;;;;7.98;42.29;101868.94;6097195;28;20021;-73
2022/03/02 12:53:39;;;;;;;16.48;6.95;;;;;;;8.25;41.31;101861.81;6085093;28;20467;-73
2022/03/02 12:56:34;;;;;;;14.73;7.03;;;;;;;8.32;41.60;101858.69;6086722;28;20036;-73
2022/03/02 12:59:30;;;;;;;15.40;6.82;;;;;;;8.08;42.33;101856.78;6093440;28;20712;-73
2022/03/02 13:02:30;;;;;;;15.52;7.50;;;;;;;8.09;43.61;101856.72;6097996;28;20052;-71
2022/03/02 13:05:36;;;;;;;17.65;7.05;;;;;;;8.19;43.66;101852.50;6108790;28;20028;-72
2022/03/02 13:08:43;;;;;;;16.17;6.78;;;;;;;8.00;43.45;101862.59;6099252;28;20029;-72
2022/03/02 13:11:38;;;;;;;12.63;6.70;;;;;;;7.87;44.70;101856.44;6097960;28;20433;-72
2022/03/02 13:14:35;;;;;;;16.17;7.57;;;;;;;7.96;44.47;101855.84;6098441;28;20037;-72
2022/03/02 13:17:30;;;;;;;24.77;7.95;;;;;;;8.19;43.23;101860.44;6099119;28;20468;-73
2022/03/02 13:20:25;;;;;;;15.93;6.60;;;;;;;7.92;42.01;101862.25;6098178;28;20074;-72
2022/03/02 13:23:26;;;;;;;18.23;8.37;;;;;;;7.88;41.77;101860.75;6098490;28;20025;-72
2022/03/02 13:26:21;;;;;;;15.43;7.70;;;;;;;7.92;43.50;101867.53;6099005;28;20540;-73
2022/03/02 13:29:16;;;;;;;16.53;7.17;;;;;;;7.67;42.79;101860.38;6098358;28;20033;-73
2022/03/02 13:32:12;;;;;;;16.63;6.80;;;;;;;7.65;41.98;101856.13;6098738;28;20025;-72
2022/03/02 13:35:10;;;;;;;16.60;7.15;;;;;;;7.82;42.74;101858.53;6098997;28;20040;-71
2022/03/02 13:38:08;;;;;;;16.98;6.43;;;;;;;7.85;42.11;101858.34;6099140;28;20033;-73
2022/03/02 13:41:03;;;;;;;16.00;7.15;;;;;;;8.12;40.88;101858.31;6097557;28;20367;-71